Time;durP1;ratioP1;P1;durP2;ratioP2;P2;SDS_P1;SDS_P2;PMS_P1;PMS_P2;Temp;Humidity;BMP_temperature;BMP_pressure;BME280_temperature;BME280_humidity;BME280_pressure;Samples;Min_cycle;Max_cycle;Signal;HPM_P1;HPM_P2
2022/12/04 03:14:09;;;;;;;25.67;14.19;;;;;;;;;;4258365;27;20324;-40
2022/12/04 03:15:13;;;;;;;23.58;12.43;;;;;;;;;;2129668;27;20051;-44
2022/12/04 03:16:15;;;;;;;22.50;12.43;;;;;;;;;;2129403;27;20511;-44
2022/12/04 03:17:19;;;;;;;21.23;11.05;;;;;;;;;;2129153;27;20142;-47
2022/12/04 03:18:22;;;;;;;24.25;13.30;;;;;;;;;;2129506;27;20047;-45
2022/12/04 03:19:25;;;;;;;22.40;12.68;;;;;;;;;;2129399;27;20066;-45
2022/12/04 03:20:27;;;;;;;26.70;12.02;;;;;;;;;;2128689;27;20047;-45
2022/12/04 03:21:31;;;;;;;25.50;13.57;;;;;;;;;;2120858;28;20437;-46
2022/12/04 03:22:32;;;;;;;27.40;13.38;;;;;;;;;;2120970;28;20047;-48
2022/12/04 03:23:34;;;;;;;27.15;12.80;;;;;;;;;;2120895;28;20503;-45
2022/12/04 03:24:37;;;;;;;27.30;13.70;;;;;;;;;;2120887;28;20040;-45
2022/12/04 03:25:42;;;;;;;22.95;11.48;;;;;;;;;;2120824;28;20488;-45
2022/12/04 03:26:45;;;;;;;24.02;12.07;;;;;;;;;;2120843;28;20092;-45
2022/12/04 03:27:50;;;;;;;22.50;12.55;;;;;;;;;;2120733;28;20401;-45
2022/12/04 03:28:54;;;;;;;27.98;13.88;;;;;;;;;;2120853;28;20046;-45
2022/12/04 03:29:59;;;;;;;25.92;12.48;;;;;;;;;;2120892;28;20048;-46
2022/12/04 03:31:03;;;;;;;24.40;12.68;;;;;;;;;;2120709;28;20073;-45
2022/12/04 03:32:07;;;;;;;23.08;13.20;;;;;;;;;;2120880;28;20054;-46
2022/12/04 03:33:10;;;;;;;24.52;13.05;;;;;;;;;;2120774;28;20047;-45
2022/12/04 03:34:14;;;;;;;26.80;13.48;;;;;;;;;;2120986;28;20048;-45
2022/12/04 03:35:17;;;;;;;21.33;12.07;;;;;;;;;;2120638;28;20070;-45
2022/12/04 03:36:20;;;;;;;23.25;12.00;;;;;;;;;;2120723;28;20051;-46
2022/12/04 03:37:24;;;;;;;24.67;13.68;;;;;;;;;;2120664;28;20055;-45
2022/12/04 03:38:28;;;;;;;26.20;13.23;;;;;;;;;;2128905;27;20092;-45
2022/12/04 03:39:33;;;;;;;21.40;12.05;;;;;;;;;;2129288;27;20043;-45
2022/12/04 03:40:36;;;;;;;23.52;12.65;;;;;;;;;;2129242;27;20047;-45
2022/12/04 03:41:42;;;;;;;24.20;12.32;;;;;;;;;;2129245;27;20049;-45
2022/12/04 03:42:54;;;;;;;23.00;12.65;;;;;;;;;;2129310;27;20043;-45
2022/12/04 03:43:56;;;;;;;24.35;12.95;;;;;;;;;;2129221;27;20043;-45
2022/12/04 03:44:56;;;;;;;;;;;;;;;;;;2129707;27;20039;-45
2022/12/04 03:46:02;;;;;;;23.88;12.50;;;;;;;;;;2129105;27;19962;-45
2022/12/04 03:47:05;;;;;;;29.35;12.60;;;;;;;;;;2129337;27;20050;-45
2022/12/04 03:48:10;;;;;;;27.88;14.40;;;;;;;;;;2129078;27;20437;-45
2022/12/04 03:49:15;;;;;;;26.67;13.38;;;;;;;;;;2129244;27;20047;-45
2022/12/04 03:50:21;;;;;;;26.17;13.05;;;;;;;;;;2129335;27;20055;-46
2022/12/04 03:51:27;;;;;;;26.00;13.63;;;;;;;;;;2129151;27;20047;-46
2022/12/04 03:52:29;;;;;;;28.13;13.88;;;;;;;;;;2129001;27;20506;-44
2022/12/04 03:53:30;;;;;;;;;;;;;;;;;;2129820;27;20043;-45
2022/12/04 03:54:32;;;;;;;24.33;12.27;;;;;;;;;;2129744;27;19926;-45
2022/12/04 03:55:37;;;;;;;26.55;13.93;;;;;;;;;;2129076;27;20043;-45
2022/12/04 03:56:40;;;;;;;23.90;13.23;;;;;;;;;;2129257;27;20046;-45
2022/12/04 03:57:43;;;;;;;24.63;13.57;;;;;;;;;;2129022;27;20038;-44
2022/12/04 03:58:46;;;;;;;27.15;13.43;;;;;;;;;;2129259;27;20047;-45
2022/12/04 03:59:51;;;;;;;26.48;13.95;;;;;;;;;;2129164;27;20038;-45
2022/12/04 04:00:57;;;;;;;28.27;13.95;;;;;;;;;;2129102;27;20047;-45
2022/12/04 04:01:59;;;;;;;27.77;12.88;;;;;;;;;;2129147;27;20058;-46
2022/12/04 04:03:04;;;;;;;25.73;13.52;;;;;;;;;;2129048;27;20133;-44
2022/12/04 04:04:09;;;;;;;27.73;12.82;;;;;;;;;;2129417;27;20070;-46
2022/12/04 04:05:11;;;;;;;27.08;15.18;;;;;;;;;;2129191;27;20047;-45
2022/12/04 04:06:14;;;;;;;27.88;13.50;;;;;;;;;;2129201;27;20535;-45
2022/12/04 04:07:19;;;;;;;24.05;12.73;;;;;;;;;;2128900;27;20047;-45
2022/12/04 04:08:24;;;;;;;26.20;13.32;;;;;;;;;;2129120;27;20087;-45
2022/12/04 04:09:29;;;;;;;28.65;14.57;;;;;;;;;;2128903;27;20047;-46
2022/12/04 04:10:30;;;;;;;27.25;14.77;;;;;;;;;;2129381;27;20099;-40
2022/12/04 04:11:33;;;;;;;26.30;13.90;;;;;;;;;;2129214;27;20444;-40
2022/12/04 04:12:35;;;;;;;29.48;13.82;;;;;;;;;;2128771;27;20050;-40
2022/12/04 04:24:27;;;;;;;28.15;13.77;;;;;;;;;;2123355;28;20043;-44
2022/12/04 04:25:28;;;;;;;26.85;14.38;;;;;;;;;;2123263;28;20050;-44
2022/12/04 04:26:33;;;;;;;26.27;13.03;;;;;;;;;;2123346;28;20055;-46
2022/12/04 04:27:33;;;;;;;34.08;14.15;;;;;;;;;;2123249;28;20491;-45
2022/12/04 04:28:36;;;;;;;27.17;12.63;;;;;;;;;;2123261;28;20044;-46
2022/12/04 04:29:37;;;;;;;32.50;13.43;;;;;;;;;;2123223;28;20046;-44
2022/12/04 04:30:38;;;;;;;30.10;14.20;;;;;;;;;;2123221;28;20419;-45
2022/12/04 04:31:42;;;;;;;33.75;14.75;;;;;;;;;;2123412;28;20542;-44
2022/12/04 04:32:45;;;;;;;28.20;15.05;;;;;;;;;;2123254;28;20084;-46
2022/12/04 04:33:49;;;;;;;28.42;13.80;;;;;;;;;;2123161;28;20039;-45
2022/12/04 04:34:52;;;;;;;27.60;12.75;;;;;;;;;;2123535;28;20054;-41
2022/12/04 04:35:56;;;;;;;28.20;13.85;;;;;;;;;;2123251;28;20051;-41
2022/12/04 04:37:00;;;;;;;28.15;14.75;;;;;;;;;;2123103;28;20055;-41
2022/12/04 04:38:07;;;;;;;29.65;13.73;;;;;;;;;;2123325;28;20437;-41
2022/12/04 04:39:12;;;;;;;27.63;14.18;;;;;;;;;;2123152;28;20396;-40
2022/12/04 04:40:18;;;;;;;29.77;14.18;;;;;;;;;;2123111;28;20047;-40
2022/12/04 04:41:21;;;;;;;31.17;14.10;;;;;;;;;;2123161;28;20039;-41
2022/12/04 04:42:25;;;;;;;28.10;13.60;;;;;;;;;;2122926;28;20510;-40
2022/12/04 04:43:31;;;;;;;29.30;15.55;;;;;;;;;;2123141;28;20438;-40
2022/12/04 04:44:36;;;;;;;28.17;13.45;;;;;;;;;;2123296;28;20047;-40
2022/12/04 04:45:41;;;;;;;26.25;13.02;;;;;;;;;;2123209;28;20042;-41
2022/12/04 04:46:46;;;;;;;29.48;14.90;;;;;;;;;;2123136;28;20047;-40
2022/12/04 04:47:52;;;;;;;26.40;13.20;;;;;;;;;;2123107;28;20039;-40
2022/12/04 04:48:55;;;;;;;30.20;14.25;;;;;;;;;;2123000;28;20515;-40
2022/12/04 04:49:58;;;;;;;27.70;13.95;;;;;;;;;;2122989;28;20507;-40
2022/12/04 04:51:00;;;;;;;27.95;13.93;;;;;;;;;;2123213;28;20297;-40
2022/12/04 04:52:01;;;;;;;30.67;15.32;;;;;;;;;;2122879;28;20040;-40
2022/12/04 04:53:04;;;;;;;35.75;14.27;;;;;;;;;;2123170;28;20047;-40
2022/12/04 04:54:06;;;;;;;27.50;13.20;;;;;;;;;;2123053;28;20051;-40
2022/12/04 04:55:08;;;;;;;30.98;14.70;;;;;;;;;;2123085;28;20509;-39
2022/12/04 04:56:09;;;;;;;26.67;14.10;;;;;;;;;;2123188;28;20148;-41
2022/12/04 04:57:10;;;;;;;27.88;14.43;;;;;;;;;;2123079;28;20068;-41
2022/12/04 04:58:12;;;;;;;30.93;14.83;;;;;;;;;;2123194;28;20495;-41
2022/12/04 04:59:13;;;;;;;31.70;15.90;;;;;;;;;;2123067;28;20515;-41
2022/12/04 05:00:16;;;;;;;31.58;13.57;;;;;;;;;;2123611;28;20054;-41
2022/12/04 05:01:17;;;;;;;27.35;14.02;;;;;;;;;;2123138;28;20118;-41
2022/12/04 05:02:19;;;;;;;31.02;15.52;;;;;;;;;;2123047;28;20047;-41
2022/12/04 05:03:20;;;;;;;28.50;14.23;;;;;;;;;;2122999;28;20047;-41
2022/12/04 05:04:21;;;;;;;31.23;17.17;;;;;;;;;;2123099;28;20126;-41
2022/12/04 05:05:22;;;;;;;27.83;15.02;;;;;;;;;;2123155;28;20051;-41
2022/12/04 05:06:24;;;;;;;27.13;13.43;;;;;;;;;;2122953;28;20051;-41
2022/12/04 05:07:24;;;;;;;25.45;14.00;;;;;;;;;;2122878;28;20096;-41
2022/12/04 05:08:26;;;;;;;29.23;14.77;;;;;;;;;;2122839;28;20097;-41
2022/12/04 05:09:26;;;;;;;31.80;14.63;;;;;;;;;;2122979;28;20051;-41
2022/12/04 05:10:28;;;;;;;27.60;14.77;;;;;;;;;;2123022;28;20047;-41
2022/12/04 05:11:29;;;;;;;32.05;13.70;;;;;;;;;;2123123;28;20051;-41
2022/12/04 05:12:30;;;;;;;26.23;13.63;;;;;;;;;;2114907;28;20527;-41
2022/12/04 05:13:31;;;;;;;30.55;13.95;;;;;;;;;;2114471;28;20047;-41
2022/12/04 05:14:32;;;;;;;32.85;14.40;;;;;;;;;;2114481;28;20048;-41
2022/12/04 05:15:33;;;;;;;25.50;12.95;;;;;;;;;;2114396;28;20417;-41
2022/12/04 05:16:34;;;;;;;31.63;14.03;;;;;;;;;;2114448;28;20052;-41
2022/12/04 05:17:35;;;;;;;29.88;13.98;;;;;;;;;;2114370;28;20445;-42
2022/12/04 05:18:37;;;;;;;25.13;13.00;;;;;;;;;;2114405;28;20039;-41
2022/12/04 05:19:53;;;;;;;30.58;13.05;;;;;;;;;;2114534;28;20117;-41
2022/12/04 05:20:54;;;;;;;33.78;13.93;;;;;;;;;;2114465;28;20116;-41
2022/12/04 05:21:56;;;;;;;30.30;14.05;;;;;;;;;;2114597;28;20051;-45
2022/12/04 05:22:57;;;;;;;27.08;12.88;;;;;;;;;;2114468;28;20052;-47
2022/12/04 05:23:58;;;;;;;30.17;13.55;;;;;;;;;;2114518;28;20035;-46
2022/12/04 05:24:59;;;;;;;28.20;13.52;;;;;;;;;;2114144;28;20354;-46
2022/12/04 05:26:01;;;;;;;27.85;14.00;;;;;;;;;;2113927;28;20065;-46
2022/12/04 05:27:02;;;;;;;35.22;15.38;;;;;;;;;;2114426;28;20051;-45
2022/12/04 05:28:03;;;;;;;36.97;14.77;;;;;;;;;;2114359;28;20659;-46
2022/12/04 05:29:04;;;;;;;31.60;15.90;;;;;;;;;;2114509;28;20054;-45
2022/12/04 05:30:05;;;;;;;29.10;14.07;;;;;;;;;;2114414;28;20611;-45
2022/12/04 05:31:06;;;;;;;26.65;14.10;;;;;;;;;;2114401;28;20054;-45
2022/12/04 05:32:08;;;;;;;32.13;13.63;;;;;;;;;;2114216;28;20058;-45
2022/12/04 05:33:09;;;;;;;27.88;14.38;;;;;;;;;;2114518;28;20072;-41
2022/12/04 05:34:11;;;;;;;32.83;15.50;;;;;;;;;;2114370;28;20066;-41
2022/12/04 05:35:13;;;;;;;29.27;13.57;;;;;;;;;;2114367;28;20099;-40
2022/12/04 05:36:14;;;;;;;32.87;15.17;;;;;;;;;;2114495;28;20147;-40
2022/12/04 05:37:15;;;;;;;30.42;13.60;;;;;;;;;;2114541;28;20047;-45
2022/12/04 05:38:16;;;;;;;29.67;13.55;;;;;;;;;;2114419;28;20039;-45
2022/12/04 05:39:17;;;;;;;27.77;12.95;;;;;;;;;;2114461;28;20340;-46
2022/12/04 05:40:18;;;;;;;34.72;14.63;;;;;;;;;;2114302;28;20043;-44
2022/12/04 05:41:19;;;;;;;27.15;13.63;;;;;;;;;;2114401;28;20036;-45
2022/12/04 05:42:20;;;;;;;26.53;13.13;;;;;;;;;;2114433;28;20487;-45
2022/12/04 05:43:21;;;;;;;33.72;14.80;;;;;;;;;;2114263;28;20054;-44
2022/12/04 05:44:22;;;;;;;37.40;14.37;;;;;;;;;;2114412;28;20074;-45
2022/12/04 05:45:23;;;;;;;35.08;14.52;;;;;;;;;;2114299;28;20101;-45
2022/12/04 05:46:24;;;;;;;30.95;14.93;;;;;;;;;;2114091;28;20109;-44
2022/12/04 05:47:25;;;;;;;27.52;13.52;;;;;;;;;;2114159;28;20142;-45
2022/12/04 05:48:27;;;;;;;31.45;15.05;;;;;;;;;;2114178;28;20090;-45
2022/12/04 05:49:28;;;;;;;32.33;14.90;;;;;;;;;;2114143;28;20043;-44
2022/12/04 05:50:30;;;;;;;31.20;15.48;;;;;;;;;;2114252;28;20051;-45
2022/12/04 05:51:30;;;;;;;28.17;12.90;;;;;;;;;;2114315;28;20047;-44
2022/12/04 05:52:32;;;;;;;32.07;14.13;;;;;;;;;;2114041;28;20047;-45
2022/12/04 05:53:33;;;;;;;34.22;14.40;;;;;;;;;;2114357;28;20055;-44
2022/12/04 05:54:34;;;;;;;30.63;15.52;;;;;;;;;;2114370;28;20412;-45
2022/12/04 05:55:35;;;;;;;32.97;14.00;;;;;;;;;;2114216;28;20404;-45
2022/12/04 05:56:36;;;;;;;32.57;15.50;;;;;;;;;;2114378;28;20043;-45
2022/12/04 05:57:37;;;;;;;28.08;13.82;;;;;;;;;;2114118;28;20284;-45
2022/12/04 05:58:38;;;;;;;29.45;14.20;;;;;;;;;;2114174;28;20053;-44
2022/12/04 05:59:39;;;;;;;34.35;15.20;;;;;;;;;;2114308;28;20039;-44
2022/12/04 06:00:40;;;;;;;24.83;13.53;;;;;;;;;;2114274;28;20043;-45
2022/12/04 06:01:41;;;;;;;34.90;14.55;;;;;;;;;;2114172;28;20051;-45
2022/12/04 06:02:43;;;;;;;31.98;13.93;;;;;;;;;;2114139;28;20588;-46
2022/12/04 06:03:44;;;;;;;28.48;13.50;;;;;;;;;;2114018;28;20084;-44
2022/12/04 06:04:45;;;;;;;35.35;16.52;;;;;;;;;;2119479;28;20084;-45
2022/12/04 06:05:46;;;;;;;;;;;;;;;;;;2123478;28;20357;-40
2022/12/04 06:06:47;;;;;;;29.33;14.40;;;;;;;;;;2122746;28;19957;-40
2022/12/04 06:07:48;;;;;;;32.92;14.93;;;;;;;;;;2122423;28;20100;-39
2022/12/04 06:08:50;;;;;;;30.88;14.65;;;;;;;;;;2122773;28;20112;-44
2022/12/04 06:09:53;;;;;;;36.67;15.45;;;;;;;;;;2122818;28;20039;-40
2022/12/04 06:10:55;;;;;;;33.90;14.52;;;;;;;;;;2122841;28;20052;-40
2022/12/04 06:11:56;;;;;;;32.58;15.02;;;;;;;;;;2119278;28;20465;-40
2022/12/04 06:12:58;;;;;;;34.65;14.73;;;;;;;;;;2114522;28;20039;-41
2022/12/04 06:13:59;;;;;;;31.73;14.57;;;;;;;;;;2114040;28;20055;-40
2022/12/04 06:15:00;;;;;;;29.95;14.57;;;;;;;;;;2114039;28;20051;-41
2022/12/04 06:16:01;;;;;;;25.30;13.10;;;;;;;;;;2114342;28;20066;-45
2022/12/04 06:17:03;;;;;;;31.95;14.70;;;;;;;;;;2114083;28;20044;-45
2022/12/04 06:18:03;;;;;;;28.77;14.55;;;;;;;;;;2114170;28;20043;-45
2022/12/04 06:19:05;;;;;;;28.52;14.60;;;;;;;;;;2114345;28;20093;-41
2022/12/04 06:20:08;;;;;;;36.00;15.68;;;;;;;;;;2114125;28;20121;-40
2022/12/04 06:21:12;;;;;;;31.35;14.32;;;;;;;;;;2114062;28;20047;-40
2022/12/04 06:22:13;;;;;;;32.42;15.25;;;;;;;;;;2113960;28;20054;-41
2022/12/04 06:23:14;;;;;;;30.97;13.70;;;;;;;;;;2114067;28;20055;-40
2022/12/04 06:24:17;;;;;;;28.83;14.82;;;;;;;;;;2114046;28;20047;-40
2022/12/04 06:25:18;;;;;;;29.98;14.85;;;;;;;;;;2114045;28;20096;-40
2022/12/04 06:26:19;;;;;;;33.28;14.10;;;;;;;;;;2114027;28;20069;-39
2022/12/04 06:27:20;;;;;;;25.63;13.23;;;;;;;;;;2113851;28;20138;-42
2022/12/04 06:28:29;;;;;;;35.45;15.98;;;;;;;;;;2114181;28;20415;-45
2022/12/04 06:29:30;;;;;;;31.57;13.17;;;;;;;;;;2113996;28;20100;-45
2022/12/04 06:30:32;;;;;;;31.23;14.13;;;;;;;;;;2114013;28;20058;-44
2022/12/04 06:31:35;;;;;;;34.30;15.80;;;;;;;;;;2114288;28;20054;-45
2022/12/04 06:32:35;;;;;;;34.28;15.05;;;;;;;;;;2113849;28;20047;-44
2022/12/04 06:33:37;;;;;;;31.60;15.40;;;;;;;;;;2113919;28;20484;-45
2022/12/04 06:34:38;;;;;;;31.42;12.50;;;;;;;;;;2114248;28;20094;-44
2022/12/04 06:35:40;;;;;;;33.38;14.20;;;;;;;;;;2114023;28;20047;-44
2022/12/04 06:36:41;;;;;;;33.58;15.27;;;;;;;;;;2113666;28;20480;-44
2022/12/04 06:37:42;;;;;;;31.67;14.80;;;;;;;;;;2114129;28;20040;-40
2022/12/04 06:38:44;;;;;;;34.70;15.57;;;;;;;;;;2114189;28;20050;-40
2022/12/04 06:39:45;;;;;;;33.63;15.10;;;;;;;;;;2114398;28;20040;-41
2022/12/04 06:40:46;;;;;;;32.25;14.35;;;;;;;;;;2114279;28;20096;-44
2022/12/04 06:41:47;;;;;;;28.05;12.85;;;;;;;;;;2114091;28;20077;-46
2022/12/04 06:42:48;;;;;;;27.77;13.40;;;;;;;;;;2114041;28;20097;-46
2022/12/04 06:43:50;;;;;;;31.63;13.77;;;;;;;;;;2114453;28;20043;-41
2022/12/04 06:44:51;;;;;;;28.27;13.43;;;;;;;;;;2114124;28;20141;-41
2022/12/04 06:45:58;;;;;;;30.07;13.73;;;;;;;;;;2114160;28;20074;-39
2022/12/04 06:47:00;;;;;;;30.85;15.00;;;;;;;;;;2114640;28;20284;-43
2022/12/04 06:48:01;;;;;;;37.08;15.18;;;;;;;;;;2114324;28;20047;-41
2022/12/04 06:49:02;;;;;;;31.17;14.57;;;;;;;;;;2114463;28;20385;-41
2022/12/04 06:50:05;;;;;;;33.40;14.60;;;;;;;;;;2114156;28;20047;-41
2022/12/04 06:51:09;;;;;;;32.60;14.85;;;;;;;;;;2113958;28;20060;-41
2022/12/04 06:52:09;;;;;;;26.95;13.35;;;;;;;;;;2113994;28;20048;-41
2022/12/04 06:53:11;;;;;;;34.80;14.93;;;;;;;;;;2113972;28;20082;-41
2022/12/04 06:54:12;;;;;;;29.85;14.20;;;;;;;;;;2114232;28;20044;-41
2022/12/04 06:55:13;;;;;;;32.08;14.18;;;;;;;;;;2114327;28;20096;-41
2022/12/04 06:56:16;;;;;;;36.42;15.18;;;;;;;;;;2114146;28;20044;-41
2022/12/04 06:57:17;;;;;;;26.92;13.07;;;;;;;;;;2114131;28;20044;-41
2022/12/04 06:58:18;;;;;;;30.42;13.43;;;;;;;;;;2114036;28;20048;-41
2022/12/04 06:59:20;;;;;;;30.00;13.45;;;;;;;;;;2114235;28;20044;-41
2022/12/04 07:00:20;;;;;;;32.20;14.05;;;;;;;;;;2113953;28;20040;-41
2022/12/04 07:01:23;;;;;;;31.58;12.93;;;;;;;;;;2122678;28;20051;-41
2022/12/04 07:02:24;;;;;;;27.08;13.45;;;;;;;;;;2122435;28;20054;-41
2022/12/04 07:03:25;;;;;;;29.90;13.57;;;;;;;;;;2122429;28;20410;-41
2022/12/04 07:04:26;;;;;;;29.85;13.85;;;;;;;;;;2122670;28;20550;-41
2022/12/04 07:05:27;;;;;;;30.77;13.63;;;;;;;;;;2122502;28;20082;-41
2022/12/04 07:06:30;;;;;;;27.20;13.45;;;;;;;;;;2122517;28;20047;-41
2022/12/04 07:07:31;;;;;;;26.58;12.15;;;;;;;;;;2122804;28;20047;-41
2022/12/04 07:08:32;;;;;;;27.58;13.13;;;;;;;;;;2122410;28;20403;-41
2022/12/04 07:09:33;;;;;;;28.25;13.02;;;;;;;;;;2122473;28;20050;-41
2022/12/04 07:10:34;;;;;;;27.65;13.25;;;;;;;;;;2122611;28;20047;-41
2022/12/04 07:11:36;;;;;;;27.20;13.30;;;;;;;;;;2122154;28;20403;-41
2022/12/04 07:12:36;;;;;;;28.48;12.13;;;;;;;;;;2114293;28;20051;-45
2022/12/04 07:13:38;;;;;;;21.60;11.50;;;;;;;;;;2113994;28;20047;-46
2022/12/04 07:14:39;;;;;;;27.08;12.65;;;;;;;;;;2113902;28;20114;-47
2022/12/04 07:15:40;;;;;;;28.38;12.77;;;;;;;;;;2113957;28;20093;-45
2022/12/04 07:16:41;;;;;;;31.23;14.07;;;;;;;;;;2114049;28;20062;-46
2022/12/04 07:17:43;;;;;;;27.33;13.38;;;;;;;;;;2114011;28;20049;-41
2022/12/04 07:18:44;;;;;;;29.88;12.43;;;;;;;;;;2114097;28;20073;-41
2022/12/04 07:19:45;;;;;;;33.55;13.95;;;;;;;;;;2113899;28;20442;-41
2022/12/04 07:20:46;;;;;;;29.75;13.43;;;;;;;;;;2113724;28;20039;-41
2022/12/04 07:21:48;;;;;;;30.57;12.93;;;;;;;;;;2113884;28;20124;-41
2022/12/04 07:22:49;;;;;;;30.58;13.00;;;;;;;;;;2114015;28;20054;-41
2022/12/04 07:23:50;;;;;;;26.98;14.43;;;;;;;;;;2113867;28;20126;-39
2022/12/04 07:24:51;;;;;;;23.38;12.30;;;;;;;;;;2113888;28;20051;-39
2022/12/04 07:25:53;;;;;;;24.43;13.37;;;;;;;;;;2114089;28;20044;-40
2022/12/04 07:26:54;;;;;;;28.33;12.20;;;;;;;;;;2114062;28;20051;-39
2022/12/04 07:27:55;;;;;;;27.20;13.05;;;;;;;;;;2113869;28;20047;-39
2022/12/04 07:28:57;;;;;;;26.15;12.63;;;;;;;;;;2114105;28;20048;-44
2022/12/04 07:29:58;;;;;;;29.17;13.18;;;;;;;;;;2113820;28;20069;-44
2022/12/04 07:31:02;;;;;;;31.30;13.80;;;;;;;;;;2114237;28;20079;-39
2022/12/04 07:32:03;;;;;;;23.65;11.27;;;;;;;;;;2113701;28;20044;-40
2022/12/04 07:33:04;;;;;;;26.88;13.30;;;;;;;;;;2113873;28;20051;-40
2022/12/04 07:34:05;;;;;;;28.80;13.70;;;;;;;;;;2113855;28;20531;-40
2022/12/04 07:35:07;;;;;;;31.20;13.82;;;;;;;;;;2114187;28;20069;-40
2022/12/04 07:36:09;;;;;;;29.02;13.40;;;;;;;;;;2113876;28;20043;-40
2022/12/04 07:37:11;;;;;;;32.20;15.52;;;;;;;;;;2114066;28;20052;-45
2022/12/04 07:38:12;;;;;;;25.67;13.38;;;;;;;;;;2114096;28;20078;-40
2022/12/04 07:39:13;;;;;;;28.60;13.10;;;;;;;;;;2114056;28;20063;-45
2022/12/04 07:40:14;;;;;;;24.70;12.80;;;;;;;;;;2114460;28;20043;-46
2022/12/04 07:41:15;;;;;;;31.77;15.33;;;;;;;;;;2113838;28;20130;-45
2022/12/04 07:42:16;;;;;;;29.90;13.43;;;;;;;;;;2113782;28;20055;-44
2022/12/04 07:43:25;;;;;;;26.75;13.10;;;;;;;;;;2113849;28;20146;-44
2022/12/04 07:44:25;;;;;;;29.00;12.55;;;;;;;;;;2113828;28;20043;-45
2022/12/04 07:45:27;;;;;;;26.40;12.63;;;;;;;;;;2113671;28;20047;-45
2022/12/04 07:46:28;;;;;;;22.52;11.85;;;;;;;;;;2113754;28;20079;-45
2022/12/04 07:47:29;;;;;;;26.65;12.45;;;;;;;;;;2113666;28;20097;-45
2022/12/04 07:48:30;;;;;;;30.67;13.07;;;;;;;;;;2113797;28;20047;-44
2022/12/04 07:49:34;;;;;;;24.27;12.13;;;;;;;;;;2115239;28;20044;-45
2022/12/04 07:50:35;;;;;;;30.95;13.40;;;;;;;;;;2115340;28;20058;-44
2022/12/04 07:51:36;;;;;;;26.50;13.02;;;;;;;;;;2115042;28;20492;-45
2022/12/04 07:52:38;;;;;;;27.27;13.02;;;;;;;;;;2115412;28;20043;-46
2022/12/04 07:53:39;;;;;;;28.90;13.27;;;;;;;;;;2115316;28;20048;-46
2022/12/04 07:54:40;;;;;;;26.35;12.20;;;;;;;;;;2115259;28;20047;-45
2022/12/04 07:55:41;;;;;;;22.30;11.00;;;;;;;;;;2115216;28;20048;-45
2022/12/04 07:56:43;;;;;;;24.67;12.63;;;;;;;;;;2116173;28;20054;-45
2022/12/04 07:57:43;;;;;;;28.38;12.68;;;;;;;;;;2123580;28;20055;-45
2022/12/04 07:58:45;;;;;;;32.85;13.38;;;;;;;;;;2123919;28;20092;-44
2022/12/04 07:59:46;;;;;;;26.98;11.90;;;;;;;;;;2123811;28;20515;-40
2022/12/04 08:00:47;;;;;;;25.10;12.73;;;;;;;;;;2123605;28;20043;-40
2022/12/04 08:01:48;;;;;;;24.60;12.00;;;;;;;;;;2123856;28;20088;-40
2022/12/04 08:02:49;;;;;;;26.20;12.70;;;;;;;;;;2123603;28;20065;-40
2022/12/04 08:03:52;;;;;;;24.77;11.20;;;;;;;;;;2123827;28;20085;-45
2022/12/04 08:04:53;;;;;;;23.80;12.48;;;;;;;;;;2123977;28;20043;-40
2022/12/04 08:05:58;;;;;;;24.48;11.88;;;;;;;;;;2123786;28;20039;-40
2022/12/04 08:06:59;;;;;;;26.83;12.50;;;;;;;;;;2123776;28;20043;-45
2022/12/04 08:08:01;;;;;;;22.52;11.10;;;;;;;;;;2123556;28;20054;-44
2022/12/04 08:09:02;;;;;;;20.98;11.40;;;;;;;;;;2123607;28;20392;-44
2022/12/04 08:10:10;;;;;;;24.70;11.73;;;;;;;;;;2123475;28;20466;-44
2022/12/04 08:11:12;;;;;;;23.90;11.38;;;;;;;;;;2123674;28;20051;-45
2022/12/04 08:12:13;;;;;;;;;;;;;;;;;;2118378;28;20708;-44
2022/12/04 08:13:14;;;;;;;20.45;11.57;;;;;;;;;;2115002;28;19970;-44
2022/12/04 08:14:15;;;;;;;25.83;12.70;;;;;;;;;;2115082;28;20048;-44
2022/12/04 08:15:16;;;;;;;26.50;13.20;;;;;;;;;;2115128;28;20054;-45
2022/12/04 08:16:17;;;;;;;24.00;11.77;;;;;;;;;;2114933;28;20087;-45
2022/12/04 08:17:18;;;;;;;24.10;11.48;;;;;;;;;;2114999;28;20508;-44
2022/12/04 08:18:19;;;;;;;24.67;12.27;;;;;;;;;;2115124;28;20057;-46
2022/12/04 08:19:21;;;;;;;27.73;13.65;;;;;;;;;;2115129;28;20043;-40
2022/12/04 08:20:22;;;;;;;26.02;11.77;;;;;;;;;;2115379;28;20036;-45
2022/12/04 08:21:24;;;;;;;24.73;11.70;;;;;;;;;;2115277;28;20255;-45
2022/12/04 08:22:25;;;;;;;28.27;12.60;;;;;;;;;;2115164;28;20115;-45
2022/12/04 08:23:27;;;;;;;24.13;11.27;;;;;;;;;;2114920;28;20044;-45
2022/12/04 08:24:28;;;;;;;25.55;11.40;;;;;;;;;;2115119;28;20100;-44
2022/12/04 08:25:48;;;;;;;21.85;11.23;;;;;;;;;;2114898;28;20500;-45
2022/12/04 08:26:49;;;;;;;24.98;12.32;;;;;;;;;;2115297;28;20042;-45
2022/12/04 08:27:50;;;;;;;26.08;11.98;;;;;;;;;;2115064;28;20097;-45
2022/12/04 08:28:52;;;;;;;28.00;12.63;;;;;;;;;;2115059;28;20048;-45
2022/12/04 08:29:52;;;;;;;;;;;;;;;;;;2115407;28;20065;-45
2022/12/04 08:30:54;;;;;;;23.70;11.75;;;;;;;;;;2115054;28;19923;-46
2022/12/04 08:31:55;;;;;;;23.55;11.25;;;;;;;;;;2114876;28;20507;-46
2022/12/04 08:32:56;;;;;;;31.00;12.15;;;;;;;;;;2115035;28;20492;-45
2022/12/04 08:33:57;;;;;;;26.08;11.63;;;;;;;;;;2115038;28;20043;-47
2022/12/04 08:34:58;;;;;;;25.13;13.02;;;;;;;;;;2115109;28;20043;-46
2022/12/04 08:35:59;;;;;;;25.13;12.50;;;;;;;;;;2115001;28;20134;-46
2022/12/04 08:37:01;;;;;;;22.52;11.52;;;;;;;;;;2114714;28;20579;-46
2022/12/04 08:38:02;;;;;;;25.48;11.65;;;;;;;;;;2115282;28;20110;-41
2022/12/04 08:39:04;;;;;;;22.55;12.63;;;;;;;;;;2115185;28;20179;-41
2022/12/04 08:40:05;;;;;;;24.45;12.05;;;;;;;;;;2114824;28;20413;-41
2022/12/04 08:41:07;;;;;;;20.95;11.52;;;;;;;;;;2114837;28;20047;-41
2022/12/04 08:42:09;;;;;;;25.15;11.95;;;;;;;;;;2114842;28;20349;-41
2022/12/04 08:43:10;;;;;;;24.90;12.07;;;;;;;;;;2114871;28;20055;-40
2022/12/04 08:44:11;;;;;;;22.50;12.60;;;;;;;;;;2115049;28;20365;-41
2022/12/04 08:45:12;;;;;;;24.65;11.85;;;;;;;;;;2114995;28;20055;-41
2022/12/04 08:46:14;;;;;;;29.15;13.90;;;;;;;;;;2114780;28;20135;-41
2022/12/04 08:47:15;;;;;;;24.30;12.10;;;;;;;;;;2114847;28;20099;-42
2022/12/04 08:48:17;;;;;;;22.92;11.52;;;;;;;;;;2114866;28;20052;-41
2022/12/04 08:49:18;;;;;;;24.95;12.65;;;;;;;;;;2114759;28;20446;-41
2022/12/04 08:50:19;;;;;;;23.63;12.13;;;;;;;;;;2114828;28;20047;-41
2022/12/04 08:51:21;;;;;;;23.77;11.63;;;;;;;;;;2115034;28;20055;-41
2022/12/04 08:52:22;;;;;;;23.02;10.90;;;;;;;;;;2114625;28;20051;-41
2022/12/04 08:53:23;;;;;;;24.80;12.65;;;;;;;;;;2114729;28;20051;-41
2022/12/04 08:54:25;;;;;;;26.33;13.37;;;;;;;;;;2114804;28;20491;-41
2022/12/04 08:55:26;;;;;;;27.25;13.43;;;;;;;;;;2115025;28;20276;-43
2022/12/04 08:56:28;;;;;;;29.27;12.70;;;;;;;;;;2114789;28;20134;-47
2022/12/04 08:57:29;;;;;;;24.45;11.63;;;;;;;;;;2114721;28;20502;-45
2022/12/04 08:58:30;;;;;;;19.97;10.97;;;;;;;;;;2115104;28;20051;-46
2022/12/04 08:59:31;;;;;;;26.35;12.05;;;;;;;;;;2114963;28;20836;-41
2022/12/04 09:00:32;;;;;;;24.77;11.32;;;;;;;;;;2114821;28;20126;-41
2022/12/04 09:01:33;;;;;;;26.55;13.75;;;;;;;;;;2114785;28;20043;-41
2022/12/04 09:02:34;;;;;;;25.92;11.57;;;;;;;;;;2114891;28;20126;-42
2022/12/04 09:03:35;;;;;;;26.27;12.52;;;;;;;;;;2114761;28;20044;-41
2022/12/04 09:04:36;;;;;;;26.60;12.30;;;;;;;;;;2114896;28;20047;-40
2022/12/04 09:05:37;;;;;;;26.80;12.85;;;;;;;;;;2114774;28;20065;-40
2022/12/04 09:06:39;;;;;;;23.95;11.93;;;;;;;;;;2114701;28;20104;-40
2022/12/04 09:07:39;;;;;;;24.67;12.40;;;;;;;;;;2114698;28;20047;-40
2022/12/04 09:08:41;;;;;;;23.37;11.93;;;;;;;;;;2115145;28;20043;-45
2022/12/04 09:09:42;;;;;;;;;;;;;;;;;;2115293;28;20187;-46
2022/12/04 09:10:49;;;;;;;25.13;12.25;;;;;;;;;;2114662;28;20012;-44
2022/12/04 09:11:50;;;;;;;35.60;11.80;;;;;;;;;;2114636;28;20047;-45
2022/12/04 09:12:51;;;;;;;23.85;10.77;;;;;;;;;;2114503;28;20039;-44
2022/12/04 09:13:52;;;;;;;24.33;12.57;;;;;;;;;;2114986;28;20134;-45
2022/12/04 09:14:54;;;;;;;23.52;11.90;;;;;;;;;;2114779;28;20040;-45
2022/12/04 09:15:55;;;;;;;27.60;12.80;;;;;;;;;;2114774;28;20047;-46
2022/12/04 09:16:56;;;;;;;27.52;12.85;;;;;;;;;;2114959;28;20044;-40
2022/12/04 09:17:57;;;;;;;23.88;11.45;;;;;;;;;;2114758;28;20047;-40
2022/12/04 09:18:58;;;;;;;26.48;11.68;;;;;;;;;;2114770;28;20400;-41
2022/12/04 09:19:59;;;;;;;22.38;11.57;;;;;;;;;;2114539;28;20378;-41
2022/12/04 09:21:04;;;;;;;22.48;10.27;;;;;;;;;;2114737;28;20054;-40
2022/12/04 09:22:06;;;;;;;25.95;11.70;;;;;;;;;;2114577;28;20047;-39
2022/12/04 09:23:07;;;;;;;22.43;11.73;;;;;;;;;;2114545;28;20051;-39
2022/12/04 09:24:08;;;;;;;26.42;12.30;;;;;;;;;;2114564;28;20043;-40
2022/12/04 09:25:10;;;;;;;21.55;12.30;;;;;;;;;;2114724;28;20140;-40
2022/12/04 09:26:20;;;;;;;24.52;12.45;;;;;;;;;;2114587;28;20043;-40